createdAt,value
2018-09-26T00:00:21.685Z,-79
2018-09-26T00:02:54.583Z,-79
2018-09-26T00:05:23.015Z,-80
2018-09-26T00:07:51.199Z,-80
2018-09-26T00:10:19.365Z,-80
2018-09-26T00:12:47.533Z,-79
2018-09-26T00:15:15.729Z,-80
2018-09-26T00:17:43.939Z,-80
2018-09-26T00:20:12.214Z,-80
2018-09-26T00:22:40.425Z,-80
2018-09-26T00:25:08.832Z,-80
2018-09-26T00:27:36.933Z,-79
2018-09-26T00:30:05.240Z,-80
2018-09-26T00:32:33.430Z,-78
2018-09-26T00:35:01.634Z,-81
2018-09-26T00:37:29.853Z,-77
2018-09-26T00:39:58.181Z,-79
2018-09-26T00:42:26.451Z,-79
2018-09-26T00:44:54.635Z,-80
2018-09-26T00:47:22.882Z,-79
2018-09-26T00:49:51.150Z,-82
2018-09-26T00:52:19.430Z,-81
2018-09-26T00:54:47.728Z,-82
2018-09-26T00:57:16.333Z,-83
2018-09-26T00:59:45.380Z,-81
2018-09-26T01:02:13.616Z,-82
2018-09-26T01:04:41.740Z,-82
2018-09-26T01:07:10.056Z,-79
2018-09-26T01:09:38.212Z,-80
2018-09-26T01:12:06.445Z,-81
2018-09-26T01:14:34.738Z,-81
2018-09-26T01:17:03.083Z,-80
2018-09-26T01:19:31.206Z,-81
2018-09-26T01:21:59.461Z,-80
2018-09-26T01:24:27.607Z,-80
2018-09-26T01:26:55.961Z,-80
2018-09-26T01:29:24.140Z,-80
2018-09-26T01:31:53.045Z,-81
2018-09-26T01:34:21.147Z,-80
2018-09-26T01:36:49.461Z,-81
2018-09-26T01:39:17.694Z,-69
2018-09-26T01:41:46.015Z,-70
2018-09-26T01:44:14.182Z,-69
2018-09-26T01:46:42.277Z,-70
2018-09-26T01:49:10.463Z,-68
2018-09-26T01:51:38.743Z,-70
2018-09-26T01:54:07.145Z,-69
2018-09-26T01:56:35.522Z,-69
2018-09-26T01:59:03.937Z,-69
2018-09-26T02:01:32.319Z,-71
2018-09-26T02:04:00.473Z,-71
2018-09-26T02:06:28.871Z,-73
2018-09-26T02:08:57.073Z,-68
2018-09-26T02:11:25.285Z,-70
2018-09-26T02:13:53.493Z,-70
2018-09-26T02:16:21.111Z,-69
2018-09-26T02:18:49.415Z,-70
2018-09-26T02:21:17.747Z,-69
2018-09-26T02:23:45.988Z,-70
2018-09-26T02:26:14.320Z,-71
2018-09-26T02:28:42.415Z,-71
2018-09-26T02:31:10.643Z,-70
2018-09-26T02:33:39.042Z,-71
2018-09-26T02:36:14.700Z,-71
2018-09-26T02:38:42.842Z,-70
2018-09-26T02:41:11.144Z,-70
2018-09-26T02:43:39.332Z,-71
2018-09-26T02:46:07.660Z,-71
2018-09-26T02:48:41.619Z,-71
2018-09-26T02:51:09.836Z,-71
2018-09-26T02:53:38.150Z,-70
2018-09-26T02:56:06.425Z,-70
2018-09-26T02:58:34.674Z,-71
2018-09-26T03:01:02.970Z,-72
2018-09-26T03:03:31.229Z,-70
2018-09-26T03:05:59.386Z,-70
2018-09-26T03:08:28.430Z,-71
2018-09-26T03:10:56.648Z,-70
2018-09-26T03:13:24.766Z,-69
2018-09-26T03:15:52.922Z,-70
2018-09-26T03:18:21.110Z,-72
2018-09-26T03:20:49.882Z,-70
2018-09-26T03:23:18.064Z,-71
2018-09-26T03:25:46.302Z,-71
2018-09-26T03:28:14.506Z,-70
2018-09-26T03:30:42.816Z,-71
2018-09-26T03:33:11.089Z,-73
2018-09-26T03:35:39.309Z,-71
2018-09-26T03:38:08.406Z,-71
2018-09-26T03:40:36.612Z,-71
2018-09-26T03:43:04.802Z,-72
2018-09-26T03:45:32.953Z,-72
2018-09-26T03:48:01.259Z,-71
2018-09-26T03:50:29.530Z,-70
2018-09-26T03:52:57.800Z,-70
2018-09-26T03:55:25.985Z,-72
2018-09-26T03:57:54.094Z,-70
2018-09-26T04:00:22.268Z,-72
2018-09-26T04:02:50.532Z,-71
2018-09-26T04:05:18.690Z,-70
2018-09-26T04:07:47.544Z,-70
2018-09-26T04:10:15.229Z,-70
2018-09-26T04:12:43.504Z,-72
2018-09-26T04:15:11.711Z,-71
2018-09-26T04:17:40.068Z,-74
2018-09-26T04:20:08.717Z,-71
2018-09-26T04:22:37.019Z,-71
2018-09-26T04:25:05.377Z,-73
2018-09-26T04:27:33.612Z,-72
2018-09-26T04:30:01.905Z,-78
2018-09-26T04:32:30.374Z,-78
2018-09-26T04:34:58.711Z,-77
2018-09-26T04:37:27.055Z,-76
2018-09-26T04:39:55.293Z,-80
2018-09-26T04:42:23.461Z,-79
2018-09-26T04:44:51.839Z,-78
2018-09-26T04:47:20.092Z,-82
2018-09-26T04:49:48.605Z,-82
2018-09-26T04:52:16.842Z,-80
2018-09-26T04:54:45.332Z,-81
2018-09-26T04:57:21.269Z,-79
2018-09-26T04:59:50.576Z,-80
2018-09-26T05:02:19.072Z,-80
2018-09-26T05:04:48.140Z,-78
2018-09-26T05:07:16.976Z,-79
2018-09-26T05:09:45.157Z,-81
2018-09-26T05:12:13.292Z,-84
2018-09-26T05:14:41.516Z,-83
2018-09-26T05:17:10.510Z,-82
2018-09-26T05:19:38.774Z,-82
2018-09-26T05:22:07.136Z,-81
2018-09-26T05:24:35.418Z,-82
2018-09-26T05:27:03.778Z,-83
2018-09-26T05:29:32.076Z,-84
2018-09-26T05:32:00.210Z,-84
2018-09-26T05:34:28.649Z,-82
2018-09-26T05:36:56.803Z,-84
2018-09-26T05:39:24.977Z,-82
2018-09-26T05:41:53.218Z,-82
2018-09-26T05:44:22.141Z,-85
2018-09-26T05:46:50.448Z,-83
2018-09-26T05:49:18.714Z,-85
2018-09-26T05:51:47.601Z,-84
2018-09-26T05:54:15.921Z,-84
2018-09-26T05:56:44.251Z,-84
2018-09-26T05:59:12.385Z,-86
2018-09-26T06:01:40.515Z,-84
2018-09-26T06:04:08.860Z,-81
2018-09-26T06:06:37.812Z,-81
2018-09-26T06:09:10.761Z,-85
2018-09-26T06:11:38.961Z,-82
2018-09-26T06:14:07.973Z,-84
2018-09-26T06:16:36.257Z,-81
2018-09-26T06:19:04.605Z,-85
2018-09-26T06:21:32.744Z,-84
2018-09-26T06:24:00.919Z,-85
2018-09-26T06:26:29.165Z,-83
2018-09-26T06:28:57.495Z,-86
2018-09-26T06:31:25.852Z,-83
2018-09-26T06:33:54.001Z,-83
2018-09-26T06:36:22.287Z,-83
2018-09-26T06:38:51.025Z,-82
2018-09-26T06:41:19.328Z,-82
2018-09-26T06:43:47.959Z,-83
2018-09-26T06:46:16.131Z,-82
2018-09-26T06:48:44.387Z,-81
2018-09-26T06:51:12.610Z,-82
2018-09-26T06:53:40.895Z,-83
2018-09-26T06:56:09.903Z,-82
2018-09-26T06:58:38.227Z,-81
2018-09-26T07:01:06.574Z,-83
2018-09-26T07:03:34.867Z,-82
2018-09-26T07:06:03.014Z,-82
2018-09-26T07:08:31.233Z,-81
2018-09-26T07:10:59.356Z,-82
2018-09-26T07:13:27.520Z,-81
2018-09-26T07:15:55.958Z,-81
2018-09-26T07:18:24.168Z,-82
2018-09-26T07:20:52.312Z,-83
2018-09-26T07:23:20.706Z,-81
2018-09-26T07:25:49.294Z,-81
2018-09-26T07:28:17.455Z,-82
2018-09-26T07:30:46.592Z,-80
2018-09-26T07:33:14.704Z,-82
2018-09-26T07:35:44.362Z,-82
2018-09-26T07:38:12.616Z,-82
2018-09-26T07:40:41.083Z,-83
2018-09-26T07:43:09.325Z,-82
2018-09-26T07:45:38.113Z,-81
2018-09-26T07:48:06.711Z,-82
2018-09-26T07:50:34.899Z,-79
2018-09-26T07:53:03.105Z,-83
2018-09-26T07:55:31.997Z,-83
2018-09-26T07:58:00.145Z,-81
2018-09-26T08:00:28.466Z,-81
2018-09-26T08:02:56.739Z,-81
2018-09-26T08:05:25.517Z,-80
2018-09-26T08:07:53.825Z,-82
2018-09-26T08:10:23.054Z,-82
2018-09-26T08:12:52.185Z,-82
2018-09-26T08:15:20.411Z,-82
2018-09-26T08:17:48.730Z,-83
2018-09-26T08:20:22.661Z,-82
2018-09-26T08:22:51.067Z,-81
2018-09-26T08:25:19.317Z,-83
2018-09-26T08:27:47.465Z,-81
2018-09-26T08:30:15.615Z,-83
2018-09-26T08:32:44.154Z,-81
2018-09-26T08:35:12.676Z,-81
2018-09-26T08:37:41.570Z,-83
2018-09-26T08:40:13.720Z,-82
2018-09-26T08:45:19.423Z,-83
2018-09-26T08:47:48.089Z,-83
2018-09-26T08:50:16.793Z,-83
2018-09-26T08:52:45.133Z,-81
2018-09-26T08:55:13.373Z,-82
2018-09-26T08:57:41.599Z,-82
2018-09-26T09:00:09.843Z,-82
2018-09-26T09:02:38.050Z,-83
2018-09-26T09:05:06.278Z,-82
2018-09-26T09:07:34.670Z,-83
2018-09-26T09:10:03.304Z,-82
2018-09-26T09:12:31.600Z,-84
2018-09-26T09:15:00.000Z,-84
2018-09-26T09:17:28.307Z,-83
2018-09-26T09:19:56.478Z,-83
2018-09-26T09:22:25.888Z,-82
2018-09-26T09:24:54.724Z,-85
2018-09-26T09:27:22.973Z,-84
2018-09-26T09:29:52.272Z,-82
2018-09-26T09:32:21.603Z,-84
2018-09-26T09:34:49.869Z,-84
2018-09-26T09:37:18.999Z,-84
2018-09-26T09:39:47.836Z,-83
2018-09-26T09:42:16.060Z,-84
2018-09-26T09:44:44.404Z,-85
2018-09-26T09:47:12.699Z,-82
2018-09-26T09:49:40.988Z,-81
2018-09-26T09:52:09.430Z,-83
2018-09-26T09:54:37.948Z,-83
2018-09-26T09:57:07.059Z,-84
2018-09-26T09:59:35.199Z,-84
2018-09-26T10:02:04.028Z,-84
2018-09-26T10:04:32.833Z,-83
2018-09-26T10:07:01.175Z,-84
2018-09-26T10:09:30.022Z,-84
2018-09-26T10:11:58.993Z,-82
2018-09-26T10:14:27.310Z,-84
2018-09-26T10:16:55.643Z,-84
2018-09-26T10:19:24.065Z,-84
2018-09-26T10:21:52.261Z,-70
2018-09-26T10:24:20.459Z,-70
2018-09-26T10:26:48.708Z,-70
2018-09-26T10:29:16.902Z,-72
2018-09-26T10:31:45.801Z,-70
2018-09-26T10:34:13.969Z,-71
2018-09-26T10:36:45.228Z,-70
2018-09-26T10:39:14.439Z,-69
2018-09-26T10:41:42.627Z,-69
2018-09-26T10:44:10.881Z,-71
2018-09-26T10:46:39.859Z,-70
2018-09-26T10:49:08.252Z,-71
2018-09-26T10:51:36.992Z,-71
2018-09-26T10:54:05.138Z,-70
2018-09-26T10:56:34.286Z,-70
2018-09-26T10:59:02.420Z,-70
2018-09-26T11:01:30.811Z,-71
2018-09-26T11:03:59.076Z,-69
2018-09-26T11:06:27.284Z,-70
2018-09-26T11:08:56.534Z,-71
2018-09-26T11:11:24.757Z,-70
2018-09-26T11:13:54.264Z,-70
2018-09-26T11:16:22.450Z,-70
2018-09-26T11:18:52.144Z,-71
2018-09-26T11:21:21.076Z,-71
2018-09-26T11:23:49.974Z,-71
2018-09-26T11:26:18.208Z,-71
2018-09-26T11:28:46.297Z,-70
2018-09-26T11:31:15.218Z,-70
2018-09-26T11:33:43.500Z,-71
2018-09-26T11:36:11.577Z,-74
2018-09-26T11:38:40.939Z,-70
2018-09-26T11:41:09.215Z,-70
2018-09-26T11:43:38.204Z,-70
2018-09-26T11:46:06.484Z,-72
2018-09-26T11:48:35.843Z,-71
2018-09-26T11:51:04.129Z,-71
2018-09-26T11:53:33.284Z,-71
2018-09-26T11:56:01.584Z,-71
2018-09-26T11:58:29.696Z,-71
2018-09-26T12:00:57.895Z,-71
2018-09-26T12:03:26.052Z,-70
2018-09-26T12:05:54.233Z,-71
2018-09-26T12:08:22.603Z,-70
2018-09-26T12:10:51.978Z,-72
2018-09-26T12:13:20.327Z,-70
2018-09-26T12:15:49.067Z,-71
2018-09-26T12:18:17.425Z,-71
2018-09-26T12:20:45.759Z,-73
2018-09-26T12:23:14.683Z,-72
2018-09-26T12:25:43.259Z,-71
2018-09-26T12:28:11.428Z,-70
2018-09-26T12:30:39.584Z,-70
2018-09-26T12:33:07.824Z,-71
2018-09-26T12:35:36.017Z,-70
2018-09-26T12:38:04.400Z,-70
2018-09-26T12:40:32.591Z,-70
2018-09-26T12:43:00.747Z,-72
2018-09-26T12:45:29.376Z,-71
2018-09-26T12:47:57.567Z,-72
2018-09-26T12:50:25.743Z,-73
2018-09-26T12:52:53.939Z,-73
2018-09-26T12:55:22.079Z,-70
2018-09-26T12:57:50.348Z,-73
2018-09-26T13:00:18.614Z,-71
2018-09-26T13:02:46.872Z,-72
2018-09-26T13:05:15.938Z,-71
2018-09-26T13:07:44.145Z,-72
2018-09-26T13:10:12.487Z,-71
2018-09-26T13:12:40.676Z,-71
2018-09-26T13:15:08.962Z,-71
2018-09-26T13:17:37.284Z,-71
2018-09-26T13:20:06.339Z,-70
2018-09-26T13:22:35.072Z,-70
2018-09-26T13:25:03.300Z,-70
2018-09-26T13:27:31.534Z,-70
2018-09-26T13:30:00.248Z,-70
2018-09-26T13:32:28.548Z,-71
2018-09-26T13:34:56.833Z,-70
2018-09-26T13:37:25.105Z,-70
2018-09-26T13:39:53.345Z,-71
2018-09-26T13:42:21.660Z,-70
2018-09-26T13:44:49.860Z,-70
2018-09-26T13:47:18.132Z,-70
2018-09-26T13:49:46.494Z,-71
2018-09-26T13:52:14.786Z,-70
2018-09-26T13:54:42.942Z,-70
2018-09-26T13:57:11.411Z,-70
2018-09-26T13:59:39.833Z,-72
2018-09-26T14:02:08.068Z,-70
2018-09-26T14:04:36.297Z,-70
2018-09-26T14:07:04.635Z,-70
2018-09-26T14:09:32.812Z,-71
2018-09-26T14:12:01.129Z,-70
2018-09-26T14:14:29.608Z,-71
2018-09-26T14:16:58.093Z,-71
2018-09-26T14:19:26.336Z,-74
2018-09-26T14:21:54.525Z,-70
2018-09-26T14:24:22.921Z,-72
2018-09-26T14:26:51.103Z,-71
2018-09-26T14:29:19.333Z,-70
2018-09-26T14:31:47.535Z,-71
2018-09-26T14:34:15.739Z,-71
2018-09-26T14:36:44.093Z,-71
2018-09-26T14:39:12.362Z,-71
2018-09-26T14:41:40.486Z,-71
2018-09-26T14:44:08.656Z,-69
2018-09-26T14:46:36.751Z,-73
2018-09-26T14:49:05.018Z,-71
2018-09-26T14:51:33.139Z,-70
2018-09-26T14:54:01.341Z,-70
2018-09-26T14:56:29.550Z,-70
2018-09-26T14:58:58.181Z,-70
2018-09-26T15:01:26.319Z,-71
2018-09-26T15:03:54.476Z,-70
2018-09-26T15:06:22.858Z,-69
2018-09-26T15:08:51.125Z,-72
2018-09-26T15:11:19.893Z,-70
2018-09-26T15:13:48.094Z,-73
2018-09-26T15:16:16.415Z,-70
2018-09-26T15:18:44.597Z,-70
2018-09-26T15:21:13.595Z,-71
2018-09-26T15:23:41.743Z,-73
2018-09-26T15:26:09.957Z,-71
2018-09-26T15:28:39.281Z,-72
2018-09-26T15:31:08.033Z,-70
2018-09-26T15:33:36.189Z,-70
2018-09-26T15:36:04.528Z,-71
2018-09-26T15:38:32.676Z,-70
2018-09-26T15:41:00.971Z,-70
2018-09-26T15:43:29.221Z,-70
2018-09-26T15:45:57.407Z,-70
2018-09-26T15:48:25.563Z,-70
2018-09-26T15:50:53.705Z,-71
2018-09-26T15:53:21.875Z,-70
2018-09-26T15:55:51.163Z,-70
2018-09-26T15:58:20.148Z,-70
2018-09-26T16:00:49.182Z,-70
2018-09-26T16:03:17.339Z,-73
2018-09-26T16:05:46.280Z,-70
2018-09-26T16:08:14.444Z,-70
2018-09-26T16:10:42.661Z,-71
2018-09-26T16:13:10.821Z,-70
2018-09-26T16:15:39.091Z,-72
2018-09-26T16:18:07.297Z,-71
2018-09-26T16:20:35.781Z,-71
2018-09-26T16:23:04.609Z,-70
2018-09-26T16:25:33.135Z,-70
2018-09-26T16:28:02.089Z,-69
2018-09-26T16:30:30.259Z,-70
2018-09-26T16:32:58.461Z,-71
2018-09-26T16:35:26.707Z,-71
2018-09-26T16:37:54.885Z,-70
2018-09-26T16:40:23.097Z,-70
2018-09-26T16:42:51.401Z,-70
2018-09-26T16:45:19.693Z,-70
2018-09-26T16:47:47.931Z,-69
2018-09-26T16:50:16.098Z,-69
2018-09-26T16:52:44.331Z,-71
2018-09-26T16:55:12.604Z,-72
2018-09-26T16:57:40.874Z,-72
2018-09-26T17:00:09.062Z,-70
2018-09-26T17:02:37.241Z,-70
2018-09-26T17:05:06.435Z,-70
2018-09-26T17:07:34.716Z,-70
2018-09-26T17:10:02.925Z,-69
2018-09-26T17:12:31.072Z,-69
2018-09-26T17:14:59.268Z,-70
2018-09-26T17:17:27.610Z,-71
2018-09-26T17:19:55.951Z,-70
2018-09-26T17:22:24.342Z,-71
2018-09-26T17:24:52.542Z,-71
2018-09-26T17:27:20.802Z,-69
2018-09-26T17:29:49.099Z,-70
2018-09-26T17:32:17.332Z,-72
2018-09-26T17:34:45.807Z,-72
2018-09-26T17:37:13.938Z,-70
2018-09-26T17:39:42.056Z,-71
2018-09-26T17:42:10.448Z,-69
2018-09-26T17:44:38.570Z,-70
2018-09-26T17:47:07.082Z,-70
2018-09-26T17:49:35.312Z,-71
2018-09-26T17:52:03.632Z,-71
2018-09-26T17:54:31.823Z,-70
2018-09-26T17:57:00.065Z,-71
2018-09-26T17:59:28.259Z,-69
2018-09-26T18:01:56.620Z,-72
2018-09-26T18:04:24.960Z,-71
2018-09-26T18:06:53.174Z,-70
2018-09-26T18:09:22.124Z,-69
2018-09-26T18:11:50.867Z,-71
2018-09-26T18:14:19.026Z,-70
2018-09-26T18:16:47.159Z,-71
2018-09-26T18:19:15.363Z,-72
2018-09-26T18:21:43.769Z,-72
2018-09-26T18:24:12.119Z,-71
2018-09-26T18:26:40.348Z,-70
2018-09-26T18:29:08.645Z,-70
2018-09-26T18:31:37.087Z,-71
2018-09-26T18:34:05.401Z,-71
2018-09-26T18:36:33.548Z,-71
2018-09-26T18:39:01.852Z,-71
2018-09-26T18:41:30.068Z,-71
2018-09-26T18:43:58.231Z,-72
2018-09-26T18:46:26.687Z,-71
2018-09-26T18:48:54.865Z,-72
2018-09-26T18:51:23.086Z,-70
2018-09-26T18:53:51.311Z,-70
2018-09-26T18:56:19.602Z,-70
2018-09-26T18:58:47.887Z,-70
2018-09-26T19:01:16.189Z,-70
2018-09-26T19:03:44.366Z,-72
2018-09-26T19:06:12.569Z,-72
2018-09-26T19:08:40.857Z,-70
2018-09-26T19:11:09.113Z,-70
2018-09-26T19:13:37.532Z,-72
2018-09-26T19:16:06.253Z,-70
2018-09-26T19:18:34.664Z,-70
2018-09-26T19:21:02.870Z,-72
2018-09-26T19:23:31.091Z,-70
2018-09-26T19:25:59.404Z,-70
2018-09-26T19:28:27.694Z,-71
2018-09-26T19:30:56.045Z,-71
2018-09-26T19:33:24.477Z,-71
2018-09-26T19:35:53.268Z,-73
2018-09-26T19:38:21.639Z,-70
2018-09-26T19:40:49.840Z,-70
2018-09-26T19:43:18.176Z,-70
2018-09-26T19:45:47.019Z,-72
2018-09-26T19:48:15.436Z,-71
2018-09-26T19:50:43.964Z,-73
2018-09-26T19:53:12.246Z,-72
2018-09-26T19:55:40.568Z,-74
2018-09-26T19:58:08.852Z,-70
2018-09-26T20:00:37.065Z,-69
2018-09-26T20:03:05.383Z,-70
2018-09-26T20:05:33.598Z,-71
2018-09-26T20:08:01.849Z,-70
2018-09-26T20:10:30.121Z,-70
2018-09-26T20:12:58.453Z,-72
2018-09-26T20:15:26.989Z,-72
2018-09-26T20:17:55.264Z,-70
2018-09-26T20:20:23.561Z,-72
2018-09-26T20:22:51.830Z,-69
2018-09-26T20:25:20.575Z,-71
2018-09-26T20:27:48.717Z,-69
2018-09-26T20:30:17.481Z,-84
2018-09-26T20:32:45.755Z,-84
2018-09-26T20:35:13.975Z,-83
2018-09-26T20:37:43.058Z,-85
2018-09-26T20:40:11.211Z,-83
2018-09-26T20:42:39.437Z,-83
2018-09-26T20:45:07.736Z,-84
2018-09-26T20:47:35.940Z,-83
2018-09-26T20:50:04.869Z,-84
2018-09-26T20:52:33.065Z,-84
2018-09-26T20:55:01.931Z,-82
2018-09-26T20:57:30.160Z,-83
2018-09-26T20:59:58.345Z,-84
2018-09-26T21:02:26.778Z,-82
2018-09-26T21:04:55.229Z,-84
2018-09-26T21:07:23.512Z,-81
2018-09-26T21:09:51.845Z,-81
2018-09-26T21:12:20.014Z,-81
2018-09-26T21:14:48.282Z,-81
2018-09-26T21:17:17.300Z,-82
2018-09-26T21:19:45.624Z,-82
2018-09-26T21:22:13.914Z,-81
2018-09-26T21:24:43.238Z,-80
2018-09-26T21:27:11.451Z,-79
2018-09-26T21:29:39.759Z,-80
2018-09-26T21:32:07.957Z,-81
2018-09-26T21:34:36.226Z,-81
2018-09-26T21:37:04.525Z,-80
2018-09-26T21:39:32.809Z,-81
2018-09-26T21:42:01.145Z,-82
2018-09-26T21:44:29.292Z,-82
2018-09-26T21:46:57.567Z,-79
2018-09-26T21:49:26.473Z,-83
2018-09-26T21:51:55.100Z,-82
2018-09-26T21:54:24.085Z,-83
2018-09-26T21:56:52.310Z,-81
2018-09-26T21:59:20.404Z,-81
2018-09-26T22:01:48.662Z,-81
2018-09-26T22:04:17.103Z,-83
2018-09-26T22:06:45.353Z,-84
2018-09-26T22:09:13.701Z,-81
2018-09-26T22:11:42.232Z,-83
2018-09-26T22:14:10.616Z,-82
2018-09-26T22:16:38.796Z,-80
2018-09-26T22:19:06.965Z,-83
2018-09-26T22:21:35.242Z,-82
2018-09-26T22:24:04.300Z,-83
2018-09-26T22:26:33.097Z,-80
2018-09-26T22:29:02.366Z,-81
2018-09-26T22:31:34.175Z,-83
2018-09-26T22:34:02.614Z,-81
2018-09-26T22:36:30.783Z,-81
2018-09-26T22:38:59.118Z,-81
2018-09-26T22:41:28.053Z,-81
2018-09-26T22:43:56.305Z,-81
2018-09-26T22:46:24.528Z,-81
2018-09-26T22:48:52.848Z,-81
2018-09-26T22:51:21.072Z,-82
2018-09-26T22:53:49.445Z,-82
2018-09-26T22:56:17.549Z,-83
2018-09-26T22:58:45.830Z,-80
2018-09-26T23:01:14.025Z,-81
2018-09-26T23:03:42.368Z,-82
2018-09-26T23:06:11.436Z,-84
2018-09-26T23:08:39.613Z,-81
2018-09-26T23:11:07.929Z,-81
2018-09-26T23:13:36.393Z,-82
2018-09-26T23:16:04.747Z,-82
2018-09-26T23:18:32.921Z,-83
2018-09-26T23:21:01.208Z,-82
2018-09-26T23:23:30.443Z,-82
2018-09-26T23:25:58.762Z,-82
2018-09-26T23:28:27.721Z,-82
2018-09-26T23:30:56.407Z,-82
2018-09-26T23:33:25.158Z,-81
2018-09-26T23:35:53.571Z,-83
2018-09-26T23:38:22.573Z,-81
2018-09-26T23:40:51.975Z,-83
2018-09-26T23:43:20.205Z,-83
2018-09-26T23:45:49.939Z,-83
2018-09-26T23:48:18.163Z,-81
2018-09-26T23:50:47.639Z,-80
2018-09-26T23:53:15.911Z,-82
2018-09-26T23:55:44.321Z,-82
2018-09-26T23:58:12.488Z,-81
